Time;durP1;ratioP1;P1;durP2;ratioP2;P2;SDS_P1;SDS_P2;PMS_P1;PMS_P2;Temp;Humidity;BMP_temperature;BMP_pressure;BME280_temperature;BME280_humidity;BME280_pressure;Samples;Min_cycle;Max_cycle;Signal;HPM_P1;HPM_P2
2023/09/13 00:01:32;;;;;;;;;;;20.00;99.90;;;;;;5137272;27;19930;-45
2023/09/13 00:03:58;;;;;;;;;;;20.00;99.90;;;;;;5137114;27;19933;-42
2023/09/13 00:06:24;;;;;;;;;;;20.00;99.90;;;;;;5137230;27;19919;-42
2023/09/13 00:08:49;;;;;;;;;;;20.00;99.90;;;;;;5137404;27;20283;-42
2023/09/13 00:11:15;;;;;;;;;;;19.90;99.90;;;;;;5136990;27;20002;-42
2023/09/13 00:13:41;;;;;;;;;;;19.90;99.90;;;;;;5137125;27;19912;-42
2023/09/13 00:16:07;;;;;;;;;;;19.90;99.90;;;;;;5137107;27;19998;-42
2023/09/13 00:18:32;;;;;;;;;;;19.90;99.90;;;;;;5137087;27;20365;-41
2023/09/13 00:20:58;;;;;;;;;;;19.90;99.90;;;;;;5136975;27;19962;-42
2023/09/13 00:23:24;;;;;;;;;;;19.90;99.90;;;;;;5136876;27;19908;-43
2023/09/13 00:25:49;;;;;;;;;;;19.90;99.90;;;;;;5136774;27;19912;-41
2023/09/13 00:28:15;;;;;;;;;;;19.90;99.90;;;;;;5136737;27;19911;-41
2023/09/13 00:30:40;;;;;;;;;;;19.80;99.90;;;;;;5136888;27;20254;-41
2023/09/13 00:33:06;;;;;;;;;;;19.80;99.90;;;;;;5136474;27;20309;-43
2023/09/13 00:35:31;;;;;;;;;;;19.80;99.90;;;;;;5136739;27;20361;-41
2023/09/13 00:37:57;;;;;;;;;;;19.80;99.90;;;;;;5136473;27;19912;-43
2023/09/13 00:40:22;;;;;;;;;;;19.80;99.90;;;;;;5136659;27;19915;-42
2023/09/13 00:42:48;;;;;;;;;;;19.80;99.90;;;;;;5136610;27;19911;-41
2023/09/13 00:45:13;;;;;;;;;;;19.80;99.90;;;;;;5136496;27;19918;-42
2023/09/13 00:47:40;;;;;;;;;;;19.80;99.90;;;;;;5136489;27;20012;-43
2023/09/13 00:50:07;;;;;;;;;;;19.70;99.90;;;;;;5136270;27;20000;-44
2023/09/13 00:52:33;;;;;;;;;;;19.70;99.90;;;;;;5136326;27;19907;-42
2023/09/13 00:54:58;;;;;;;;;;;19.70;99.90;;;;;;5136296;27;20037;-42
2023/09/13 00:57:24;;;;;;;;;;;19.70;99.90;;;;;;5136440;27;19907;-44
2023/09/13 00:59:50;;;;;;;;;;;19.70;99.90;;;;;;5136365;27;19911;-44
2023/09/13 01:02:15;;;;;;;;;;;19.70;99.90;;;;;;5136168;27;19990;-42
2023/09/13 01:04:41;;;;;;;;;;;19.70;99.90;;;;;;5136095;27;20350;-42
2023/09/13 01:07:08;;;;;;;;;;;19.70;99.90;;;;;;5136016;27;19915;-42
2023/09/13 01:09:33;;;;;;;;;;;19.70;99.90;;;;;;5135860;27;19937;-43
2023/09/13 01:12:00;;;;;;;;;;;19.70;99.90;;;;;;5135996;27;20410;-42
2023/09/13 01:14:25;;;;;;;;;;;19.60;99.90;;;;;;5136074;27;19908;-43
2023/09/13 01:16:54;;;;;;;;;;;19.60;99.90;;;;;;5135899;27;19908;-42
2023/09/13 01:19:32;;;;;;;;;;;19.60;99.90;;;;;;5135967;27;20002;-42
2023/09/13 01:21:58;;;;;;;;;;;19.60;99.90;;;;;;5135750;27;20422;-43
2023/09/13 01:24:39;;;;;;;;;;;19.60;99.90;;;;;;5136000;27;19994;-42
2023/09/13 01:27:23;;;;;;;;;;;19.50;99.90;;;;;;5135646;27;19915;-43
2023/09/13 01:29:51;;;;;;;;;;;19.60;99.90;;;;;;5135494;27;19912;-41
2023/09/13 01:32:16;;;;;;;;;;;19.50;99.90;;;;;;5135266;27;19919;-42
2023/09/13 01:34:42;;;;;;;;;;;19.50;99.90;;;;;;5135424;27;19915;-44
2023/09/13 01:37:07;;;;;;;;;;;19.50;99.90;;;;;;5135464;27;20374;-42
2023/09/13 01:39:33;;;;;;;;;;;19.40;99.90;;;;;;5135529;27;19915;-41
2023/09/13 01:42:00;;;;;;;;;;;19.40;99.90;;;;;;5135300;27;19908;-42
2023/09/13 01:44:26;;;;;;;;;;;19.40;99.90;;;;;;5135540;27;20354;-42
2023/09/13 01:46:52;;;;;;;;;;;19.40;99.90;;;;;;5135168;27;19923;-42
2023/09/13 01:49:20;;;;;;;;;;;19.40;99.90;;;;;;5135203;27;20006;-42
2023/09/13 01:51:46;;;;;;;;;;;19.40;99.90;;;;;;5135533;27;19907;-41
2023/09/13 01:54:12;;;;;;;;;;;19.40;99.90;;;;;;5135147;27;19908;-42
2023/09/13 01:56:37;;;;;;;;;;;19.30;99.90;;;;;;5135166;27;20336;-42
2023/09/13 01:59:03;;;;;;;;;;;19.30;99.90;;;;;;5135055;27;19907;-42
2023/09/13 02:01:28;;;;;;;;;;;19.30;99.90;;;;;;5134988;27;20259;-43
2023/09/13 02:03:54;;;;;;;;;;;19.30;99.90;;;;;;5134902;27;19952;-43
2023/09/13 02:06:20;;;;;;;;;;;19.20;99.90;;;;;;5134821;27;19923;-41
2023/09/13 02:08:45;;;;;;;;;;;19.20;99.90;;;;;;5134948;27;19907;-46
2023/09/13 02:11:11;;;;;;;;;;;19.20;99.90;;;;;;5134747;27;20346;-42
2023/09/13 02:13:37;;;;;;;;;;;19.10;99.90;;;;;;5134750;27;19955;-41
2023/09/13 02:16:03;;;;;;;;;;;19.10;99.90;;;;;;5134847;27;19907;-42
2023/09/13 02:18:28;;;;;;;;;;;19.10;99.90;;;;;;5134809;27;19908;-43
2023/09/13 02:20:54;;;;;;;;;;;19.00;99.90;;;;;;5134368;27;19997;-42
2023/09/13 02:23:19;;;;;;;;;;;19.00;99.90;;;;;;5134155;27;19916;-44
2023/09/13 02:25:46;;;;;;;;;;;19.00;99.90;;;;;;5134496;27;19907;-41
2023/09/13 02:28:12;;;;;;;;;;;18.90;99.90;;;;;;5134536;27;19911;-42
2023/09/13 02:30:37;;;;;;;;;;;18.90;99.90;;;;;;5134478;27;19964;-42
2023/09/13 02:33:03;;;;;;;;;;;18.90;99.90;;;;;;5134136;27;20383;-42
2023/09/13 02:35:30;;;;;;;;;;;18.80;99.90;;;;;;5135739;27;19918;-43
2023/09/13 02:37:55;;;;;;;;;;;18.80;99.90;;;;;;5153554;27;19971;-42
2023/09/13 02:40:21;;;;;;;;;;;18.80;99.90;;;;;;5155071;27;20361;-42
2023/09/13 02:42:47;;;;;;;;;;;18.80;99.90;;;;;;5155102;27;20262;-43
2023/09/13 02:45:13;;;;;;;;;;;18.70;99.90;;;;;;5154458;27;20719;-43
2023/09/13 02:47:38;;;;;;;;;;;18.70;99.90;;;;;;5154808;27;19915;-42
2023/09/13 02:50:05;;;;;;;;;;;18.70;99.90;;;;;;5154853;27;19975;-41
2023/09/13 02:52:31;;;;;;;;;;;18.70;99.90;;;;;;5154948;27;19907;-43
2023/09/13 02:54:58;;;;;;;;;;;18.60;99.90;;;;;;5154719;27;20472;-42
2023/09/13 02:57:23;;;;;;;;;;;18.60;99.90;;;;;;5134318;27;19948;-43
2023/09/13 02:59:49;;;;;;;;;;;18.60;99.90;;;;;;5133962;27;19907;-42
2023/09/13 03:02:14;;;;;;;;;;;18.50;99.90;;;;;;5133927;27;19914;-41
2023/09/13 03:04:40;;;;;;;;;;;18.50;99.90;;;;;;5134209;27;19968;-42
2023/09/13 03:07:05;;;;;;;;;;;18.50;99.90;;;;;;5133408;27;19919;-44
2023/09/13 03:09:31;;;;;;;;;;;18.50;99.90;;;;;;5133890;27;19907;-42
2023/09/13 03:11:56;;;;;;;;;;;18.50;99.90;;;;;;5133837;27;19908;-43
2023/09/13 03:14:22;;;;;;;;;;;18.50;99.90;;;;;;5133751;27;19937;-44
2023/09/13 03:16:47;;;;;;;;;;;18.50;99.90;;;;;;5133725;27;19934;-44
2023/09/13 03:19:13;;;;;;;;;;;18.50;99.90;;;;;;5133743;27;19919;-42
2023/09/13 03:21:38;;;;;;;;;;;18.50;99.90;;;;;;5133795;28;19921;-42
2023/09/13 03:24:05;;;;;;;;;;;18.40;99.90;;;;;;5133719;28;19915;-44
2023/09/13 03:26:31;;;;;;;;;;;18.40;99.90;;;;;;5133443;28;19976;-42
2023/09/13 03:28:57;;;;;;;;;;;18.40;99.90;;;;;;5133594;28;19914;-43
2023/09/13 03:31:26;;;;;;;;;;;18.40;99.90;;;;;;5133432;27;19919;-42
2023/09/13 03:33:53;;;;;;;;;;;18.40;99.90;;;;;;5134634;27;20281;-42
2023/09/13 03:36:18;;;;;;;;;;;18.40;99.90;;;;;;5137708;27;19911;-43
2023/09/13 03:38:44;;;;;;;;;;;18.50;99.90;;;;;;5158625;27;19907;-45
2023/09/13 03:41:13;;;;;;;;;;;18.40;99.90;;;;;;5158489;27;19919;-44
2023/09/13 03:43:39;;;;;;;;;;;18.40;99.90;;;;;;5158470;27;20269;-42
2023/09/13 03:46:05;;;;;;;;;;;18.40;99.90;;;;;;5155243;27;19927;-42
2023/09/13 03:48:31;;;;;;;;;;;18.50;99.90;;;;;;5137694;27;19939;-42
2023/09/13 03:50:57;;;;;;;;;;;18.40;99.90;;;;;;5137886;27;19908;-41
2023/09/13 03:53:23;;;;;;;;;;;18.40;99.90;;;;;;5137495;27;19931;-43
2023/09/13 03:55:48;;;;;;;;;;;18.40;99.90;;;;;;5150225;27;19917;-42
2023/09/13 03:58:14;;;;;;;;;;;18.40;99.90;;;;;;5158191;27;19907;-41
2023/09/13 04:00:39;;;;;;;;;;;18.40;99.90;;;;;;5158153;27;20308;-42
2023/09/13 04:03:05;;;;;;;;;;;18.30;99.90;;;;;;5158064;27;19907;-42
2023/09/13 04:05:30;;;;;;;;;;;18.30;99.90;;;;;;5157666;27;20373;-43
2023/09/13 04:07:57;;;;;;;;;;;18.40;99.90;;;;;;5157992;27;19921;-43
2023/09/13 04:10:22;;;;;;;;;;;18.40;99.90;;;;;;5158009;27;20353;-42
2023/09/13 04:12:48;;;;;;;;;;;18.40;99.90;;;;;;5157902;27;19907;-42
2023/09/13 04:15:13;;;;;;;;;;;18.30;99.90;;;;;;5143666;27;19919;-42
2023/09/13 04:17:39;;;;;;;;;;;18.30;99.90;;;;;;5137208;27;19907;-42
2023/09/13 04:20:05;;;;;;;;;;;18.30;99.90;;;;;;5151664;27;19995;-44
2023/09/13 04:22:31;;;;;;;;;;;18.30;99.90;;;;;;5157726;27;19911;-43
2023/09/13 04:24:56;;;;;;;;;;;18.30;99.90;;;;;;5157787;27;19994;-41
2023/09/13 04:27:22;;;;;;;;;;;18.30;99.90;;;;;;5157498;27;20017;-45
2023/09/13 04:29:48;;;;;;;;;;;18.30;99.90;;;;;;5157544;27;19915;-45
2023/09/13 04:32:13;;;;;;;;;;;18.30;99.90;;;;;;5157194;27;19931;-42
2023/09/13 04:34:39;;;;;;;;;;;18.20;99.90;;;;;;5157549;27;19949;-42
2023/09/13 04:37:05;;;;;;;;;;;18.20;99.90;;;;;;5157378;27;19911;-42
2023/09/13 04:39:31;;;;;;;;;;;18.20;99.90;;;;;;5144423;27;19916;-41
2023/09/13 04:41:59;;;;;;;;;;;18.10;99.90;;;;;;5136640;27;19943;-43
2023/09/13 04:44:25;;;;;;;;;;;18.10;99.90;;;;;;5136043;27;19912;-41
2023/09/13 04:46:51;;;;;;;;;;;18.10;99.90;;;;;;5136355;27;20396;-42
2023/09/13 04:49:17;;;;;;;;;;;18.10;99.90;;;;;;5136394;27;19932;-42
2023/09/13 04:51:43;;;;;;;;;;;18.10;99.90;;;;;;5136486;27;20277;-42
2023/09/13 04:54:08;;;;;;;;;;;18.10;99.90;;;;;;5135800;27;19988;-42
2023/09/13 04:56:34;;;;;;;;;;;18.10;99.90;;;;;;5136353;27;19907;-43
2023/09/13 04:58:59;;;;;;;;;;;18.10;99.90;;;;;;5136312;27;20388;-42
2023/09/13 05:01:25;;;;;;;;;;;18.00;99.90;;;;;;5135913;27;19907;-42
2023/09/13 05:03:52;;;;;;;;;;;18.10;99.90;;;;;;5149354;27;19908;-42
2023/09/13 05:06:17;;;;;;;;;;;18.00;99.90;;;;;;5156318;27;19919;-42
2023/09/13 05:08:43;;;;;;;;;;;18.00;99.90;;;;;;5156857;27;20001;-43
2023/09/13 05:11:09;;;;;;;;;;;18.00;99.90;;;;;;5156738;27;19914;-43
2023/09/13 05:13:37;;;;;;;;;;;18.00;99.90;;;;;;5156462;27;19911;-42
2023/09/13 05:16:02;;;;;;;;;;;18.00;99.90;;;;;;5142988;27;20315;-41
2023/09/13 05:18:28;;;;;;;;;;;18.00;99.90;;;;;;5136057;27;19908;-41
2023/09/13 05:20:53;;;;;;;;;;;17.90;99.90;;;;;;5118500;27;20413;-44
2023/09/13 05:23:19;;;;;;;;;;;17.90;99.90;;;;;;5115267;28;19961;-44
2023/09/13 05:25:45;;;;;;;;;;;17.90;99.90;;;;;;5123472;27;20255;-41
2023/09/13 05:28:13;;;;;;;;;;;17.80;99.90;;;;;;5134544;27;19989;-41
2023/09/13 05:30:39;;;;;;;;;;;17.80;99.90;;;;;;5135529;27;20298;-42
2023/09/13 05:33:05;;;;;;;;;;;17.80;99.90;;;;;;5135246;27;19919;-43
2023/09/13 05:35:31;;;;;;;;;;;17.70;99.90;;;;;;5145254;27;19911;-42
2023/09/13 05:37:56;;;;;;;;;;;17.70;99.90;;;;;;5156255;27;19915;-42
2023/09/13 05:40:22;;;;;;;;;;;17.70;99.90;;;;;;5156461;27;19927;-41
2023/09/13 05:42:47;;;;;;;;;;;17.70;99.90;;;;;;5134526;27;20028;-43
2023/09/13 05:45:13;;;;;;;;;;;17.60;99.90;;;;;;5130107;27;19922;-42
2023/09/13 05:47:38;;;;;;;;;;;17.60;99.90;;;;;;5133020;27;20285;-41
2023/09/13 05:50:04;;;;;;;;;;;17.60;99.90;;;;;;5121857;27;19954;-40
2023/09/13 05:52:30;;;;;;;;;;;17.50;99.90;;;;;;5121056;27;19972;-42
2023/09/13 05:54:55;;;;;;;;;;;17.40;99.90;;;;;;5123127;27;19951;-42
2023/09/13 05:57:21;;;;;;;;;;;17.30;99.90;;;;;;5129362;27;19912;-43
2023/09/13 05:59:46;;;;;;;;;;;17.20;99.90;;;;;;5134958;27;19914;-41
2023/09/13 06:02:12;;;;;;;;;;;17.20;99.90;;;;;;5135254;27;20253;-40
2023/09/13 06:04:37;;;;;;;;;;;17.10;99.90;;;;;;5135051;27;19998;-42
2023/09/13 06:07:03;;;;;;;;;;;17.00;99.90;;;;;;5127751;27;20261;-45
2023/09/13 06:09:28;;;;;;;;;;;17.00;99.90;;;;;;5153438;27;19914;-42
2023/09/13 06:11:55;;;;;;;;;;;16.90;99.90;;;;;;5155518;27;20257;-41
2023/09/13 06:14:21;;;;;;;;;;;16.90;99.90;;;;;;5155752;27;19907;-42
2023/09/13 06:16:46;;;;;;;;;;;16.90;99.90;;;;;;5149432;27;20396;-43
2023/09/13 06:19:12;;;;;;;;;;;16.80;99.90;;;;;;5134477;27;20277;-41
2023/09/13 06:21:37;;;;;;;;;;;16.70;99.90;;;;;;5123493;27;19923;-41
2023/09/13 06:24:03;;;;;;;;;;;16.70;99.90;;;;;;5134328;27;20269;-41
2023/09/13 06:26:28;;;;;;;;;;;16.70;99.90;;;;;;5126644;27;20374;-42
2023/09/13 06:28:54;;;;;;;;;;;16.50;99.90;;;;;;5110603;27;19912;-43
2023/09/13 06:31:19;;;;;;;;;;;16.50;99.90;;;;;;5130312;27;19923;-42
2023/09/13 06:33:45;;;;;;;;;;;16.40;99.90;;;;;;5125462;27;19911;-43
2023/09/13 06:36:11;;;;;;;;;;;16.40;99.90;;;;;;5137308;27;19911;-43
2023/09/13 06:38:37;;;;;;;;;;;16.30;99.90;;;;;;5134315;27;20286;-42
2023/09/13 06:41:02;;;;;;;;;;;16.30;99.90;;;;;;5133699;27;19918;-43
2023/09/13 06:43:28;;;;;;;;;;;16.20;99.90;;;;;;5118632;27;19923;-42
2023/09/13 06:45:53;;;;;;;;;;;16.20;99.90;;;;;;5126837;27;20332;-43
2023/09/13 06:48:19;;;;;;;;;;;16.20;99.90;;;;;;5117955;27;20359;-42
2023/09/13 06:50:44;;;;;;;;;;;16.10;99.90;;;;;;5122375;27;19957;-44
2023/09/13 06:53:10;;;;;;;;;;;16.10;99.90;;;;;;5130604;27;20352;-41
2023/09/13 06:55:36;;;;;;;;;;;16.00;99.90;;;;;;5124976;27;20289;-45
2023/09/13 06:58:03;;;;;;;;;;;16.00;99.90;;;;;;5120843;27;19916;-43
2023/09/13 07:00:28;;;;;;;;;;;16.00;99.90;;;;;;5130771;27;19919;-43
2023/09/13 07:02:54;;;;;;;;;;;16.00;99.90;;;;;;5126219;27;19937;-42
2023/09/13 07:05:19;;;;;;;;;;;16.00;99.90;;;;;;5126568;27;19912;-43
2023/09/13 07:07:45;;;;;;;;;;;16.00;99.90;;;;;;5150159;27;19919;-42
2023/09/13 07:10:10;;;;;;;;;;;16.00;99.90;;;;;;5145597;27;20282;-43
2023/09/13 07:12:36;;;;;;;;;;;16.00;99.90;;;;;;5133974;27;19915;-46
2023/09/13 07:15:02;;;;;;;;;;;16.00;99.90;;;;;;5133953;27;19908;-42
2023/09/13 07:17:27;;;;;;;;;;;16.00;99.90;;;;;;5133867;27;20402;-41
2023/09/13 07:19:55;;;;;;;;;;;16.00;99.90;;;;;;5133266;27;19999;-42
2023/09/13 07:22:21;;;;;;;;;;;16.00;99.90;;;;;;5151386;27;19959;-42
2023/09/13 07:24:46;;;;;;;;;;;16.00;99.90;;;;;;5154528;27;19997;-41
2023/09/13 07:27:12;;;;;;;;;;;16.00;99.90;;;;;;5154225;27;19915;-41
2023/09/13 07:29:37;;;;;;;;;;;16.00;99.90;;;;;;5151458;27;19922;-42
2023/09/13 07:32:03;;;;;;;;;;;16.10;99.90;;;;;;5130846;27;19919;-42
2023/09/13 07:34:29;;;;;;;;;;;16.10;99.90;;;;;;5122050;28;19915;-41
2023/09/13 07:36:54;;;;;;;;;;;16.10;99.90;;;;;;5116989;28;20003;-42
2023/09/13 07:39:20;;;;;;;;;;;16.00;99.90;;;;;;5135849;27;19943;-42
2023/09/13 07:41:45;;;;;;;;;;;16.10;99.90;;;;;;5130991;27;20262;-43
2023/09/13 07:44:12;;;;;;;;;;;16.10;99.90;;;;;;5133308;27;19922;-43
2023/09/13 07:46:37;;;;;;;;;;;16.10;99.90;;;;;;5128612;28;19924;-44
2023/09/13 07:49:04;;;;;;;;;;;16.10;99.90;;;;;;5138664;27;19911;-42
2023/09/13 07:51:30;;;;;;;;;;;16.10;99.90;;;;;;5133385;28;19975;-42
2023/09/13 07:54:03;;;;;;;;;;;16.10;99.90;;;;;;5132851;28;20421;-43
2023/09/13 07:56:29;;;;;;;;;;;16.20;99.90;;;;;;5120851;28;19912;-42
2023/09/13 07:58:55;;;;;;;;;;;16.20;99.90;;;;;;5132513;28;19918;-43
2023/09/13 08:01:20;;;;;;;;;;;16.30;99.90;;;;;;5132464;27;20006;-40
2023/09/13 08:03:46;;;;;;;;;;;16.30;99.90;;;;;;5142034;27;20297;-46
2023/09/13 08:06:11;;;;;;;;;;;16.30;99.90;;;;;;5136206;27;19911;-42
2023/09/13 08:08:37;;;;;;;;;;;16.40;99.90;;;;;;5138781;27;19939;-42
2023/09/13 08:11:03;;;;;;;;;;;16.40;99.90;;;;;;5132944;28;19912;-46
2023/09/13 08:13:28;;;;;;;;;;;16.40;99.90;;;;;;5141437;27;19911;-42
2023/09/13 08:15:54;;;;;;;;;;;16.40;99.90;;;;;;5139876;27;19919;-41
2023/09/13 08:18:20;;;;;;;;;;;16.50;99.90;;;;;;5141663;27;19912;-43
2023/09/13 08:20:46;;;;;;;;;;;16.50;99.90;;;;;;5135488;27;20012;-43
2023/09/13 08:23:11;;;;;;;;;;;16.50;99.90;;;;;;5130245;27;19964;-42
2023/09/13 08:25:36;;;;;;;;;;;16.50;99.90;;;;;;5137102;27;19912;-42
2023/09/13 08:28:03;;;;;;;;;;;16.60;99.90;;;;;;5136835;27;19915;-43
2023/09/13 08:30:29;;;;;;;;;;;16.60;99.90;;;;;;5130035;27;20358;-43
2023/09/13 08:32:55;;;;;;;;;;;16.60;99.90;;;;;;5125910;27;19962;-43
2023/09/13 08:35:20;;;;;;;;;;;16.70;99.90;;;;;;5114893;27;19965;-42
2023/09/13 08:37:47;;;;;;;;;;;16.70;99.90;;;;;;5119088;27;20014;-40
2023/09/13 08:40:13;;;;;;;;;;;16.70;99.90;;;;;;5118722;27;20273;-43
2023/09/13 08:42:40;;;;;;;;;;;16.80;99.90;;;;;;5130556;27;19911;-44
2023/09/13 08:45:06;;;;;;;;;;;16.80;99.90;;;;;;5130559;27;19962;-43
2023/09/13 08:47:36;;;;;;;;;;;16.80;99.90;;;;;;5135536;27;20377;-43
2023/09/13 08:50:02;;;;;;;;;;;16.80;99.90;;;;;;5124416;27;19918;-43
2023/09/13 08:52:29;;;;;;;;;;;16.80;99.90;;;;;;5119119;27;19911;-42
2023/09/13 08:54:56;;;;;;;;;;;16.90;99.90;;;;;;5134358;27;19915;-42
2023/09/13 08:57:22;;;;;;;;;;;17.00;99.90;;;;;;5116762;27;19923;-43
2023/09/13 08:59:48;;;;;;;;;;;17.00;99.90;;;;;;5119152;27;19922;-43
2023/09/13 09:02:18;;;;;;;;;;;17.10;99.90;;;;;;5134986;27;19994;-41
2023/09/13 09:04:44;;;;;;;;;;;17.20;99.90;;;;;;5135196;27;19934;-41
2023/09/13 09:07:10;;;;;;;;;;;17.20;99.90;;;;;;5151092;27;19926;-42
2023/09/13 09:09:36;;;;;;;;;;;17.30;99.90;;;;;;5154436;27;20129;-41
2023/09/13 09:12:03;;;;;;;;;;;17.40;99.90;;;;;;5135599;27;19914;-42
2023/09/13 09:14:32;;;;;;;;;;;17.40;99.90;;;;;;5135367;27;19911;-42
2023/09/13 09:16:59;;;;;;;;;;;17.50;99.90;;;;;;5135096;27;19914;-46
2023/09/13 09:19:24;;;;;;;;;;;17.70;99.90;;;;;;5135171;27;19908;-46
2023/09/13 09:21:50;;;;;;;;;;;17.80;99.90;;;;;;5148561;27;19917;-42
2023/09/13 09:24:16;;;;;;;;;;;17.90;99.90;;;;;;5135270;27;20303;-43
2023/09/13 09:26:44;;;;;;;;;;;18.00;99.90;;;;;;5122775;27;20278;-41
2023/09/13 09:29:10;;;;;;;;;;;18.10;99.90;;;;;;5123888;27;20002;-43
2023/09/13 09:31:36;;;;;;;;;;;18.20;99.90;;;;;;5130078;27;19919;-43
2023/09/13 09:34:05;;;;;;;;;;;18.20;99.90;;;;;;5133244;27;20014;-43
2023/09/13 09:36:34;;;;;;;;;;;18.20;99.90;;;;;;5135905;27;20587;-41
2023/09/13 09:39:01;;;;;;;;;;;18.20;99.90;;;;;;5131654;27;19954;-42
2023/09/13 09:41:37;;;;;;;;;;;18.20;99.90;;;;;;5123530;27;19916;-43
2023/09/13 09:44:02;;;;;;;;;;;18.30;99.90;;;;;;5119016;27;20002;-41
2023/09/13 09:46:28;;;;;;;;;;;18.30;99.90;;;;;;5134549;27;20017;-43
2023/09/13 09:48:54;;;;;;;;;;;18.40;99.90;;;;;;5121004;27;20483;-43
2023/09/13 09:51:20;;;;;;;;;;;18.30;99.90;;;;;;5134437;27;19915;-42
2023/09/13 09:53:46;;;;;;;;;;;18.20;99.90;;;;;;5138000;27;20273;-43
2023/09/13 09:56:11;;;;;;;;;;;18.10;99.90;;;;;;5141986;27;19915;-42
2023/09/13 09:58:37;;;;;;;;;;;18.20;99.90;;;;;;5133829;27;19998;-44
2023/09/13 10:01:03;;;;;;;;;;;18.40;99.90;;;;;;5120768;27;19972;-41
2023/09/13 10:03:31;;;;;;;;;;;18.50;99.90;;;;;;5131946;27;20015;-44
2023/09/13 10:06:10;;;;;;;;;;;18.60;99.90;;;;;;5132120;27;19998;-42
2023/09/13 10:08:37;;;;;;;;;;;18.70;99.90;;;;;;5127941;27;19920;-45
2023/09/13 10:11:02;;;;;;;;;;;18.90;99.90;;;;;;5140353;27;20269;-43
2023/09/13 10:13:30;;;;;;;;;;;19.00;99.90;;;;;;5130126;27;19915;-44
2023/09/13 10:15:55;;;;;;;;;;;19.20;99.90;;;;;;5134845;27;19918;-42
2023/09/13 10:18:21;;;;;;;;;;;19.30;99.90;;;;;;5135032;27;19911;-44
2023/09/13 10:20:47;;;;;;;;;;;19.20;99.90;;;;;;5129795;27;19918;-43
2023/09/13 10:23:13;;;;;;;;;;;19.00;99.90;;;;;;5128540;27;19912;-41
2023/09/13 10:25:41;;;;;;;;;;;18.90;99.90;;;;;;5123694;27;20286;-42
2023/09/13 10:28:07;;;;;;;;;;;18.70;99.90;;;;;;5128905;27;19919;-41
2023/09/13 10:30:33;;;;;;;;;;;18.60;99.90;;;;;;5133160;27;20390;-41
2023/09/13 10:33:03;;;;;;;;;;;18.40;99.90;;;;;;5133868;27;20278;-41
2023/09/13 10:35:32;;;;;;;;;;;18.30;99.90;;;;;;5133209;27;19908;-44
2023/09/13 10:38:02;;;;;;;;;;;18.30;99.90;;;;;;5134370;27;19908;-42
2023/09/13 10:40:32;;;;;;;;;;;18.20;99.90;;;;;;5132232;27;19915;-42
2023/09/13 10:43:00;;;;;;;;;;;18.20;99.90;;;;;;5121300;27;20328;-43
2023/09/13 10:45:25;;;;;;;;;;;18.20;99.90;;;;;;5117899;27;19995;-42
2023/09/13 10:47:51;;;;;;;;;;;18.20;99.90;;;;;;5115885;27;20011;-43
2023/09/13 10:50:17;;;;;;;;;;;18.20;99.90;;;;;;5134295;27;19982;-41
2023/09/13 10:52:43;;;;;;;;;;;18.30;99.90;;;;;;5134478;27;19930;-43
2023/09/13 10:55:09;;;;;;;;;;;18.30;99.90;;;;;;5134554;27;19914;-43
2023/09/13 10:57:35;;;;;;;;;;;18.40;99.90;;;;;;5134768;27;19912;-41
2023/09/13 11:00:07;;;;;;;;;;;18.40;99.90;;;;;;5134576;27;20276;-44
2023/09/13 11:02:34;;;;;;;;;;;18.50;99.90;;;;;;5134688;27;19908;-42
2023/09/13 11:04:59;;;;;;;;;;;18.60;99.90;;;;;;5134593;27;19907;-43
2023/09/13 11:07:25;;;;;;;;;;;18.70;99.90;;;;;;5128295;27;20257;-41
2023/09/13 11:09:51;;;;;;;;;;;18.90;99.90;;;;;;5112997;28;20314;-45
2023/09/13 11:12:16;;;;;;;;;;;19.00;99.90;;;;;;5113027;28;20031;-46
2023/09/13 11:14:49;;;;;;;;;;;19.10;99.90;;;;;;5131367;27;19911;-43
2023/09/13 11:17:37;;;;;;;;;;;19.20;99.90;;;;;;5120334;27;19916;-44
2023/09/13 11:20:21;;;;;;;;;;;19.30;99.90;;;;;;5121721;27;19912;-44
2023/09/13 11:23:05;;;;;;;;;;;19.30;99.90;;;;;;5121179;27;19908;-43
2023/09/13 11:25:52;;;;;;;;;;;19.40;99.90;;;;;;5119720;28;19915;-43
2023/09/13 11:28:28;;;;;;;;;;;19.40;99.90;;;;;;5107236;28;20271;-41
2023/09/13 11:30:56;;;;;;;;;;;19.50;99.90;;;;;;5123220;27;19927;-43
2023/09/13 11:33:22;;;;;;;;;;;19.50;99.90;;;;;;5133411;28;20003;-42
2023/09/13 11:35:49;;;;;;;;;;;19.50;99.90;;;;;;5133594;28;20423;-43
2023/09/13 11:38:16;;;;;;;;;;;19.50;99.90;;;;;;5126883;28;19918;-41
2023/09/13 11:40:46;;;;;;;;;;;19.60;99.90;;;;;;5117110;28;19935;-43
2023/09/13 11:43:11;;;;;;;;;;;19.70;99.90;;;;;;5113517;28;20382;-42
2023/09/13 11:45:39;;;;;;;;;;;19.80;99.90;;;;;;5113729;28;19920;-43
2023/09/13 11:48:04;;;;;;;;;;;19.90;99.90;;;;;;5119428;28;19920;-42
2023/09/13 11:50:49;;;;;;;;;;;20.10;99.90;;;;;;5124008;28;19911;-41
2023/09/13 11:53:18;;;;;;;;;;;20.00;99.90;;;;;;5112501;28;19912;-42
2023/09/13 11:55:44;;;;;;;;;;;20.10;99.90;;;;;;5116065;28;19998;-41
2023/09/13 11:58:14;;;;;;;;;;;20.10;99.90;;;;;;5117464;28;19966;-42
2023/09/13 12:00:41;;;;;;;;;;;20.20;99.90;;;;;;5120753;27;19908;-42
2023/09/13 12:03:06;;;;;;;;;;;20.20;99.90;;;;;;5126552;27;19957;-42
2023/09/13 12:05:32;;;;;;;;;;;20.30;99.90;;;;;;5117677;28;19915;-42
2023/09/13 12:07:58;;;;;;;;;;;20.30;99.90;;;;;;5117202;28;20343;-43
2023/09/13 12:10:35;;;;;;;;;;;20.40;99.90;;;;;;5125554;27;19915;-43
2023/09/13 12:13:00;;;;;;;;;;;20.40;99.90;;;;;;5136659;27;20049;-47
2023/09/13 12:15:26;;;;;;;;;;;20.40;99.90;;;;;;5131625;27;20006;-43
2023/09/13 12:17:51;;;;;;;;;;;20.40;99.90;;;;;;5130307;27;19912;-41
2023/09/13 12:20:17;;;;;;;;;;;20.30;99.90;;;;;;5125296;27;19945;-43
2023/09/13 12:22:42;;;;;;;;;;;20.30;99.90;;;;;;5116256;28;19908;-43
2023/09/13 12:25:12;;;;;;;;;;;20.40;99.90;;;;;;5127246;27;19911;-43
2023/09/13 12:27:37;;;;;;;;;;;20.50;99.90;;;;;;5136632;27;19922;-42
2023/09/13 12:30:06;;;;;;;;;;;20.50;99.90;;;;;;5133313;27;19997;-41
2023/09/13 12:32:32;;;;;;;;;;;20.60;99.90;;;;;;5127814;27;20457;-43
2023/09/13 12:34:57;;;;;;;;;;;20.60;99.90;;;;;;5116575;28;20002;-43
2023/09/13 12:37:23;;;;;;;;;;;20.70;99.90;;;;;;5116855;28;19907;-43
2023/09/13 12:39:48;;;;;;;;;;;20.70;99.90;;;;;;5116802;28;19933;-42
2023/09/13 12:42:15;;;;;;;;;;;20.70;99.90;;;;;;5114468;28;19995;-42
2023/09/13 12:44:41;;;;;;;;;;;20.70;99.90;;;;;;5116819;27;19919;-43
2023/09/13 12:47:07;;;;;;;;;;;20.70;99.90;;;;;;5121021;27;20014;-42
2023/09/13 12:49:37;;;;;;;;;;;20.60;99.90;;;;;;5118957;27;20006;-41
2023/09/13 12:52:04;;;;;;;;;;;20.40;99.90;;;;;;5137028;27;19908;-43
2023/09/13 12:54:33;;;;;;;;;;;20.30;99.90;;;;;;5137103;27;19962;-43
2023/09/13 12:57:04;;;;;;;;;;;20.10;99.90;;;;;;5127611;27;20019;-42
2023/09/13 12:59:43;;;;;;;;;;;20.00;99.90;;;;;;5121471;27;20319;-42
2023/09/13 13:02:16;;;;;;;;;;;19.90;99.90;;;;;;5116299;28;20490;-43
2023/09/13 13:04:42;;;;;;;;;;;19.90;99.90;;;;;;5116444;28;19908;-41
2023/09/13 13:07:07;;;;;;;;;;;19.80;99.90;;;;;;5133151;27;19998;-42
2023/09/13 13:09:33;;;;;;;;;;;19.80;99.90;;;;;;5125762;27;20011;-46
2023/09/13 13:11:59;;;;;;;;;;;19.80;99.90;;;;;;5118872;27;19912;-43
2023/09/13 13:14:26;;;;;;;;;;;19.80;99.90;;;;;;5134406;27;20365;-41
2023/09/13 13:16:53;;;;;;;;;;;19.80;99.90;;;;;;5137037;27;20420;-43
2023/09/13 13:19:30;;;;;;;;;;;19.70;99.90;;;;;;5121185;27;19912;-43
2023/09/13 13:21:56;;;;;;;;;;;19.70;99.90;;;;;;5133834;27;19911;-42
2023/09/13 13:24:22;;;;;;;;;;;19.70;99.90;;;;;;5134365;27;20005;-43
2023/09/13 13:26:47;;;;;;;;;;;19.60;99.90;;;;;;5130615;27;19998;-43
2023/09/13 13:29:13;;;;;;;;;;;19.50;99.90;;;;;;5135121;27;20322;-43
2023/09/13 13:31:38;;;;;;;;;;;19.30;99.90;;;;;;5138850;27;19930;-42
2023/09/13 13:34:04;;;;;;;;;;;19.20;99.90;;;;;;5115212;27;19911;-43
2023/09/13 13:36:29;;;;;;;;;;;19.00;99.90;;;;;;5122952;27;19954;-42
2023/09/13 13:38:56;;;;;;;;;;;18.90;99.90;;;;;;5135347;27;20002;-43
2023/09/13 13:41:22;;;;;;;;;;;18.80;99.90;;;;;;5131451;27;20371;-43
2023/09/13 13:43:48;;;;;;;;;;;18.70;99.90;;;;;;5134187;27;20369;-42
2023/09/13 13:46:15;;;;;;;;;;;18.70;99.90;;;;;;5134157;27;19941;-42
2023/09/13 13:48:42;;;;;;;;;;;18.70;99.90;;;;;;5116783;27;19923;-44
2023/09/13 13:51:07;;;;;;;;;;;18.70;99.90;;;;;;5134837;27;19914;-42
2023/09/13 13:53:33;;;;;;;;;;;18.80;99.90;;;;;;5135372;27;19907;-43
2023/09/13 13:55:59;;;;;;;;;;;18.80;99.90;;;;;;5135046;27;19912;-46
2023/09/13 13:58:25;;;;;;;;;;;18.90;99.90;;;;;;5134431;27;20012;-43
2023/09/13 14:00:52;;;;;;;;;;;19.00;99.90;;;;;;5134615;27;19957;-42
2023/09/13 14:03:17;;;;;;;;;;;19.10;99.90;;;;;;5133898;27;20010;-42
2023/09/13 14:05:43;;;;;;;;;;;19.30;99.90;;;;;;5135256;27;20450;-42
2023/09/13 14:08:10;;;;;;;;;;;19.50;99.90;;;;;;5134475;27;20081;-42
2023/09/13 14:10:40;;;;;;;;;;;19.90;99.90;;;;;;5133810;27;19931;-41
2023/09/13 14:13:08;;;;;;;;;;;20.20;99.90;;;;;;5134661;27;19911;-42